Moe, South Dakota
Current Conditions -  °F | °C
As of 4:15 PM on Thursday 18 Dec 2014 (Local Time) from KORC Reporting Station
Overcast Overcast  
Wind Chill: 28°   Ceiling: 2400
Heat Index: 28°   Visibility: 10mi
Dew Point: 25°   Wind: 3mph
Humidity: 86%   Direction: 200°SSW
Pressure: 30.19"   Gusts: NA
Location:  43.1282°N, 96.5674°W
Report Text: KORC 182215Z AUTO 20003KT 10SM SCT014 OVC024 M02/M04 A3019 RMK AO2
Loading
Personal Weather Stations






























Interactive Weather Map New forecast layout! Learn more

10-Day Weather Forecast

Advertisements
Track Severe Weather on mobile